Time;durP1;ratioP1;P1;durP2;ratioP2;P2;SDS_P1;SDS_P2;PMS_P1;PMS_P2;Temp;Humidity;BMP_temperature;BMP_pressure;BME280_temperature;BME280_humidity;BME280_pressure;Samples;Min_cycle;Max_cycle;Signal;HPM_P1;HPM_P2
2022/08/12 04:37:27;;;;;;;;;;;;;;;16.62;68.45;100542.97;6627834;26;247375;-89
2022/08/12 04:59:56;;;;;;;6.22;2.55;;;;;;;17.26;65.23;100562.47;6557850;27;20075;-89
2022/08/12 05:02:59;;;;;;;3.25;2.53;;;;;;;17.34;63.93;100563.59;6578174;26;33393;-88
2022/08/12 05:06:03;;;;;;;2.87;2.10;;;;;;;17.47;63.78;100573.41;6633844;26;33590;-90
2022/08/12 05:09:06;;;;;;;6.75;2.50;;;;;;;17.59;63.73;100576.94;6633771;26;33643;-88
2022/08/12 05:12:18;;;;;;;3.00;2.47;;;;;;;17.68;62.90;100570.91;6633763;26;34903;-90
2022/08/12 05:15:21;;;;;;;3.42;2.50;;;;;;;17.83;62.58;100574.22;6634160;26;34447;-89
2022/08/12 05:22:23;;;;;;;3.03;2.28;;;;;;;18.20;61.71;100575.87;6637798;26;20302;-89
2022/08/12 05:25:29;;;;;;;2.75;2.15;;;;;;;18.31;60.56;100569.69;6632161;26;34337;-89
2022/08/12 05:28:47;;;;;;;3.17;2.80;;;;;;;18.45;60.34;100574.78;6634935;26;33420;-89
2022/08/12 05:35:14;;;;;;;5.12;2.35;;;;;;;19.16;57.94;100572.72;6634783;26;33453;-88
2022/08/12 05:41:41;;;;;;;3.03;2.33;;;;;;;19.39;56.92;100568.13;6630286;26;34164;-89
2022/08/12 05:44:44;;;;;;;2.47;2.22;;;;;;;19.51;56.59;100576.13;6634946;26;33880;-89
2022/08/12 05:47:46;;;;;;;2.58;2.37;;;;;;;19.94;54.83;100576.97;6607592;26;33777;-89
2022/08/12 05:51:10;;;;;;;2.72;2.53;;;;;;;20.44;53.88;100570.88;6625673;26;33789;-89
2022/08/12 05:54:12;;;;;;;2.22;2.10;;;;;;;20.57;52.48;100572.47;6649856;26;33800;-89
2022/08/12 05:57:15;;;;;;;3.35;2.60;;;;;;;20.42;52.97;100570.13;6654217;26;35297;-88
2022/08/12 06:00:20;;;;;;;4.30;2.42;;;;;;;20.35;53.13;100568.16;6648401;26;34098;-89
2022/08/12 06:03:24;;;;;;;2.45;2.25;;;;;;;20.53;53.19;100566.50;6645813;26;35059;-86
2022/08/12 06:06:27;;;;;;;4.87;2.42;;;;;;;20.80;52.43;100562.31;6635625;26;33921;-86
2022/08/12 06:09:31;;;;;;;5.20;2.40;;;;;;;20.94;51.19;100569.19;6614972;26;34376;-87
2022/08/12 06:12:33;;;;;;;3.17;2.28;;;;;;;21.04;51.17;100569.19;6635690;26;33940;-85
2022/08/12 06:15:36;;;;;;;3.10;2.20;;;;;;;21.76;50.25;100577.00;6636902;26;33716;-85
2022/08/12 06:18:40;;;;;;;2.95;2.70;;;;;;;22.69;46.67;100564.62;6637518;26;34069;-87
2022/08/12 06:21:47;;;;;;;8.50;2.22;;;;;;;24.52;42.60;100570.59;6636402;26;33663;-88
2022/08/12 06:24:52;;;;;;;3.50;2.35;;;;;;;25.83;39.40;100560.97;6636675;26;33911;-87
2022/08/12 06:27:57;;;;;;;4.22;2.30;;;;;;;27.11;36.70;100562.81;6617047;26;31961;-87
2022/08/12 06:31:17;;;;;;;4.50;2.22;;;;;;;26.97;36.95;100558.19;6636403;26;33932;-88
2022/08/12 06:34:30;;;;;;;3.60;1.92;;;;;;;27.09;36.21;100562.16;6636772;26;33659;-88
2022/08/12 06:37:54;;;;;;;4.10;2.50;;;;;;;26.08;38.02;100565.50;6615931;26;32785;-88
2022/08/12 06:44:22;;;;;;;3.47;2.60;;;;;;;23.92;42.06;100563.16;6616438;26;33736;-87
2022/08/12 06:47:39;;;;;;;4.82;2.42;;;;;;;23.88;42.80;100564.50;6617782;26;33512;-88
2022/08/12 07:01:41;;;;;;;5.12;2.67;;;;;;;24.12;42.86;100565.69;6638850;26;33782;-90
2022/08/12 07:12:26;;;;;;;4.45;2.28;;;;;;;26.25;39.31;100558.19;6638608;26;20055;-88
2022/08/12 07:15:31;;;;;;;2.65;2.30;;;;;;;25.98;39.30;100562.97;6643425;26;34749;-88
2022/08/12 07:18:36;;;;;;;3.25;2.30;;;;;;;25.68;39.63;100560.81;6637907;26;33917;-90
2022/08/12 07:32:50;;;;;;;3.72;2.33;;;;;;;26.15;38.31;100565.66;6637884;26;20063;-90
2022/08/12 07:35:54;;;;;;;9.55;2.83;;;;;;;26.25;38.48;100566.34;6622743;26;33957;-90
2022/08/12 10:35:52;;;;;;;4.72;2.33;;;;;;;32.88;25.27;100459.09;6620305;26;32515;-88
2022/08/12 10:38:55;;;;;;;2.60;2.40;;;;;;;33.71;24.38;100450.75;6641682;26;35457;-88
2022/08/12 10:45:31;;;;;;;2.55;2.35;;;;;;;35.67;21.80;100455.28;6635930;26;32508;-89
2022/08/12 10:48:39;;;;;;;2.20;2.05;;;;;;;37.58;20.33;100449.59;6616404;26;33859;-89
2022/08/12 10:51:42;;;;;;;4.62;2.45;;;;;;;37.89;19.11;100452.75;6616900;26;32719;-89
2022/08/12 10:55:06;;;;;;;3.72;2.28;;;;;;;35.92;21.19;100454.13;6640292;26;33835;-90
2022/08/12 10:58:17;;;;;;;3.15;2.12;;;;;;;33.76;23.12;100447.31;6639019;26;34769;-91
2022/08/12 11:01:34;;;;;;;5.72;2.53;;;;;;;32.04;25.78;100449.00;6623978;26;33137;-91
2022/08/12 11:04:58;;;;;;;2.60;2.40;;;;;;;30.51;28.52;100457.91;6628512;26;32860;-93
2022/08/12 11:08:21;;;;;;;4.82;2.40;;;;;;;30.47;28.97;100451.19;6647384;26;34797;-91
2022/08/12 11:11:47;;;;;;;3.80;2.33;;;;;;;30.35;29.24;100454.50;6628937;26;33838;-91
2022/08/12 12:01:33;;;;;;;2.80;2.60;;;;;;;29.42;31.03;100423.72;6622688;26;20066;-90
2022/08/12 12:20:08;;;;;;;5.03;2.45;;;;;;;29.51;31.16;100413.50;6647935;26;20043;-90
2022/08/12 12:23:15;;;;;;;2.60;2.40;;;;;;;29.59;30.69;100405.16;6602341;26;33492;-91
